M I D A S
Marine Information and Data Acquisition System
Tripno 2166 of the Zeeleeuw from 2011-08-18 06:46:36 to 2011-08-18 17:00:00
Back to CruiseResearch ActivitiesStationsMapUnderway DataData graphs

EquipmentUnitsComments
TimeDGPSUTC
LatitudeDGPSDM.mWGS84
LongitudeDGPSDM.mWGS84
SpeedMeteo Stationm/sRelative wind speed
DirectionMeteo StationdegRelative wind direction
TemperatureMeteo Stationdeg CelciusAir temperature
PressureMeteo StationPaAtmospheric pressure
HumidityMeteo Station%Relative humidity
Missing or incorrect values are displayed as -999
Metereological data collected by the RV Zeeleeuw from 2011-08-18 06:30:54 to 2011-08-18 13:55:43
Time Latitude Longitude Speed Direction Temperature Pressure Humidity
2011-08-18 06:31 51°13.635 2°56.018 -999 24 16.2 101400 42
2011-08-18 06:32 51°13.637 2°56 -999 24 16.2 101400 42
2011-08-18 06:34 51°13.663 2°55.905 -999 258 16.2 101400 42
2011-08-18 06:35 51°13.717 2°55.805 -999 265 16.2 101400 42
2011-08-18 06:36 51°13.779 2°55.704 4.9 23 16.2 101400 42
2011-08-18 06:37 51°13.856 2°55.635 3.3 23 16.2 101410 42
2011-08-18 06:38 51°13.922 2°55.638 4 25 16.2 101410 42
2011-08-18 06:39 51°13.957 2°55.661 -999 24 16.3 101400 42
2011-08-18 06:39 51°13.964 2°55.617 -999 8 16.4 101410 42
2011-08-18 06:40 51°14.045 2°55.509 4.8 359 16.4 101400 41
2011-08-18 06:41 51°14.165 2°55.392 6.5 360 16.3 101400 42
2011-08-18 06:42 51°14.289 2°55.265 5.3 3 16.3 101400 42
2011-08-18 06:43 51°14.415 2°55.14 6.5 4 16.3 101400 43
2011-08-18 06:44 51°14.535 2°55.001 10 8 16.3 101390 42
2011-08-18 06:45 51°14.658 2°54.806 7.1 5 16.4 101380 43
2011-08-18 06:46 51°14.823 2°54.61 13.1 359 16.5 101390 43
2011-08-18 06:47 51°14.993 2°54.41 10.7 2 16.5 101380 43
2011-08-18 06:48 51°15.154 2°54.191 12.3 1 16.6 101390 43
2011-08-18 06:49 51°15.322 2°53.981 8.3 8 16.6 101390 43
2011-08-18 06:50 51°15.483 2°53.757 6.7 4 16.6 101410 42
2011-08-18 06:51 51°15.65 2°53.547 12.4 -999 16.6 101390 43
2011-08-18 06:52 51°15.828 2°53.366 10.2 2 16.7 101400 44
2011-08-18 06:53 51°16.013 2°53.203 15.2 357 16.7 101390 43
2011-08-18 06:54 51°16.2 2°53.051 9 1 16.6 101390 43
2011-08-18 06:55 51°16.381 2°52.882 13.5 360 16.6 101410 43
2011-08-18 06:56 51°16.569 2°52.738 10.9 357 16.6 101400 43
2011-08-18 06:57 51°16.762 2°52.611 12.8 358 16.6 101410 43
2011-08-18 06:58 51°16.953 2°52.481 13.4 360 16.6 101420 43
2011-08-18 06:59 51°17.139 2°52.33 9.9 358 16.5 101420 43
2011-08-18 07:00 51°17.332 2°52.197 14.9 358 16.6 101410 43
2011-08-18 07:01 51°17.521 2°52.053 12.5 -999 16.6 101420 44
2011-08-18 07:02 51°17.709 2°51.904 14.2 360 16.6 101420 43
2011-08-18 07:03 51°17.9 2°51.768 13.9 359 16.6 101430 45
2011-08-18 07:04 51°18.089 2°51.621 10.4 358 16.6 101420 44
2011-08-18 07:05 51°18.284 2°51.495 12.1 359 16.6 101410 44
2011-08-18 07:06 51°18.475 2°51.351 13.6 359 16.6 101420 44
2011-08-18 07:07 51°18.666 2°51.202 10.3 358 16.5 101410 44
2011-08-18 07:08 51°18.854 2°51.044 9.8 356 16.6 101420 44
2011-08-18 07:09 51°19.045 2°50.898 14.5 356 16.6 101420 44
2011-08-18 07:10 51°19.235 2°50.749 9.7 358 16.5 101410 43
2011-08-18 07:11 51°19.425 2°50.595 10.2 357 16.6 101410 44
2011-08-18 07:12 51°19.617 2°50.444 12.6 354 16.5 101430 44
2011-08-18 07:13 51°19.808 2°50.289 15.4 355 16.6 101420 44
2011-08-18 07:14 51°19.998 2°50.131 10.4 356 16.5 101420 44
2011-08-18 07:15 51°20.187 2°49.978 10.1 355 16.6 101410 44
2011-08-18 07:16 51°20.378 2°49.845 10.3 357 16.6 101420 44
2011-08-18 07:17 51°20.566 2°49.691 9.7 356 16.6 101410 44
2011-08-18 07:18 51°20.759 2°49.543 9.4 356 16.6 101420 45
2011-08-18 07:19 51°20.955 2°49.398 10.4 356 16.7 101420 46
2011-08-18 07:20 51°21.151 2°49.249 10.5 357 16.6 101410 44
2011-08-18 07:21 51°21.346 2°49.101 13.9 354 16.6 101420 45
2011-08-18 07:22 51°21.544 2°48.96 13.3 353 16.6 101420 45
2011-08-18 07:23 51°21.739 2°48.809 11.6 358 16.5 101410 44
2011-08-18 07:24 51°21.937 2°48.663 11.2 354 16.6 101430 44
2011-08-18 07:25 51°22.134 2°48.521 16.1 357 16.6 101410 43
2011-08-18 07:26 51°22.327 2°48.376 14.7 354 16.6 101420 44
2011-08-18 07:27 51°22.522 2°48.239 13.1 358 16.6 101410 43
2011-08-18 07:28 51°22.714 2°48.091 11.4 357 16.6 101410 44
2011-08-18 07:29 51°22.907 2°47.949 11 354 16.7 101430 44
2011-08-18 07:30 51°23.102 2°47.811 9.8 357 16.6 101410 43
2011-08-18 07:31 51°23.297 2°47.67 13 356 16.6 101420 43
2011-08-18 07:32 51°23.492 2°47.526 13.2 355 16.6 101420 43
2011-08-18 07:33 51°23.685 2°47.384 13.9 356 16.6 101420 43
2011-08-18 07:34 51°23.879 2°47.247 15 355 16.6 101420 43
2011-08-18 07:35 51°24.074 2°47.109 14 358 16.6 101410 42
2011-08-18 07:36 51°24.265 2°46.961 10.4 357 16.6 101410 43
2011-08-18 07:37 51°24.458 2°46.828 15.9 358 16.7 101410 44
2011-08-18 07:38 51°24.645 2°46.677 15.5 359 16.6 101410 44
2011-08-18 07:39 51°24.837 2°46.534 9.8 359 16.6 101420 44
2011-08-18 07:40 51°25.032 2°46.395 11.8 353 16.6 101420 45
2011-08-18 07:41 51°25.221 2°46.242 13.9 359 16.5 101420 44
2011-08-18 07:42 51°25.418 2°46.105 14.8 359 16.6 101420 43
2011-08-18 07:43 51°25.618 2°45.977 12.1 360 16.6 101410 43
2011-08-18 07:44 51°25.812 2°45.826 10.3 358 16.6 101420 43
2011-08-18 07:45 51°26.007 2°45.68 11.4 357 16.7 101410 43
2011-08-18 07:46 51°26.201 2°45.541 12.7 352 16.6 101420 43
2011-08-18 07:47 51°26.392 2°45.401 14.4 355 16.6 101430 43
2011-08-18 07:48 51°26.581 2°45.251 12.1 357 16.7 101430 44
2011-08-18 07:49 51°26.773 2°45.105 10.5 356 16.6 101430 44
2011-08-18 07:50 51°26.966 2°44.964 14.3 355 16.6 101440 43
2011-08-18 07:51 51°27.156 2°44.812 9.6 357 16.5 101430 43
2011-08-18 07:52 51°27.349 2°44.668 10.7 350 16.6 101420 43
2011-08-18 07:53 51°27.544 2°44.53 11.5 355 16.6 101430 42
2011-08-18 07:54 51°27.738 2°44.395 11.7 352 16.6 101420 43
2011-08-18 07:55 51°27.93 2°44.257 9.5 353 16.6 101420 42
2011-08-18 07:56 51°28.118 2°44.113 15.3 352 16.6 101420 44
2011-08-18 07:57 51°28.31 2°43.978 6.2 353 16.6 101420 44
2011-08-18 07:58 51°28.501 2°43.836 12.3 354 16.6 101420 44
2011-08-18 07:59 51°28.697 2°43.709 14.6 356 16.6 101430 44
2011-08-18 08:00 51°28.89 2°43.571 10.5 356 16.6 101400 45
2011-08-18 08:01 51°29.082 2°43.435 9.3 357 16.5 101410 45
2011-08-18 08:02 51°29.274 2°43.302 6.3 352 16.5 101420 45
2011-08-18 08:03 51°29.467 2°43.172 9.6 356 16.5 101400 44
2011-08-18 08:04 51°29.666 2°43.11 9.2 345 16.5 101410 44
2011-08-18 08:05 51°29.85 2°43.209 19.1 341 16.5 101410 45
2011-08-18 08:06 51°30.033 2°43.322 10.6 340 16.5 101430 44
2011-08-18 08:07 51°30.218 2°43.428 21 342 16.6 101420 44
2011-08-18 08:08 51°30.404 2°43.526 17.1 342 16.6 101410 44
2011-08-18 08:09 51°30.591 2°43.614 10 346 16.6 101420 44
2011-08-18 08:10 51°30.78 2°43.697 11.7 344 16.6 101410 44
2011-08-18 08:11 51°30.968 2°43.78 18 343 16.6 101410 44
2011-08-18 08:12 51°31.154 2°43.877 12.5 342 16.6 101430 44
2011-08-18 08:13 51°31.344 2°43.959 7.4 340 16.6 101430 44
2011-08-18 08:14 51°31.53 2°44.053 7.7 342 16.6 101440 43
2011-08-18 08:15 51°31.716 2°44.15 13.4 342 16.6 101440 44
2011-08-18 08:16 51°31.906 2°44.23 16.8 345 16.6 101440 44
2011-08-18 08:17 51°32.091 2°44.328 6.9 345 16.6 101440 44
2011-08-18 08:18 51°32.279 2°44.409 14.7 343 16.7 101450 44
2011-08-18 08:19 51°32.463 2°44.504 13.4 339 16.5 101460 44
2011-08-18 08:20 51°32.645 2°44.612 17.9 343 16.5 101440 44
2011-08-18 08:21 51°32.828 2°44.709 7.5 344 16.6 101450 44
2011-08-18 08:22 51°33.009 2°44.82 16.7 343 16.6 101450 44
2011-08-18 08:23 51°33.192 2°44.919 15.9 343 16.5 101440 44
2011-08-18 08:24 51°33.37 2°45.036 15.4 343 16.6 101440 44
2011-08-18 08:25 51°33.553 2°45.132 16.4 345 16.5 101430 44
2011-08-18 08:26 51°33.734 2°45.242 13.2 341 16.6 101440 45
2011-08-18 08:27 51°33.914 2°45.351 16.7 341 16.6 101450 45
2011-08-18 08:28 51°34.097 2°45.447 11.4 344 16.5 101440 45
2011-08-18 08:29 51°34.277 2°45.562 15.1 341 16.6 101450 45
2011-08-18 08:30 51°34.46 2°45.659 11.5 344 16.5 101440 45
2011-08-18 08:31 51°34.639 2°45.77 15.7 341 16.5 101450 45
2011-08-18 08:32 51°34.821 2°45.866 7.4 346 16.5 101440 45
2011-08-18 08:33 51°35.005 2°45.953 12.4 343 16.6 101450 46
2011-08-18 08:34 51°35.184 2°46.064 11.2 342 16.5 101450 46
2011-08-18 08:35 51°35.367 2°46.161 13.8 343 16.5 101440 46
2011-08-18 08:36 51°35.549 2°46.252 7.2 341 16.5 101450 45
2011-08-18 08:37 51°35.727 2°46.36 12.6 340 16.5 101440 46
2011-08-18 08:38 51°35.908 2°46.458 7.6 341 16.5 101440 46
2011-08-18 08:39 51°36.092 2°46.543 18.3 342 16.5 101430 46
2011-08-18 08:40 51°36.281 2°46.607 13.6 341 16.5 101440 47
2011-08-18 08:41 51°36.468 2°46.678 16.6 345 16.4 101440 46
2011-08-18 08:42 51°36.655 2°46.75 7 342 16.4 101430 46
2011-08-18 08:43 51°36.841 2°46.823 15.6 342 16.4 101430 47
2011-08-18 08:44 51°37.026 2°46.898 13 344 16.4 101430 46
2011-08-18 08:45 51°37.214 2°46.963 13 344 16.4 101430 46
2011-08-18 08:46 51°37.398 2°47.048 4.4 342 16.4 101440 46
2011-08-18 08:47 51°37.584 2°47.128 15 341 16.4 101430 47
2011-08-18 08:48 51°37.766 2°47.217 15.4 343 16.4 101420 47
2011-08-18 08:49 51°37.946 2°47.319 6.8 343 16.4 101420 46
2011-08-18 08:50 51°38.126 2°47.418 17.2 338 16.4 101420 46
2011-08-18 08:51 51°38.3 2°47.537 10.2 338 16.4 101430 46
2011-08-18 08:52 51°38.477 2°47.641 20.4 338 16.4 101430 46
2011-08-18 08:53 51°38.652 2°47.749 14.8 342 16.3 101440 46
2011-08-18 08:54 51°38.83 2°47.85 17.5 338 16.4 101430 46
2011-08-18 08:55 51°39.006 2°47.954 10.2 340 16.4 101440 46
2011-08-18 08:56 51°39.182 2°48.065 15.2 342 16.4 101430 46
2011-08-18 08:57 51°39.359 2°48.167 12.2 340 16.4 101430 46
2011-08-18 08:58 51°39.532 2°48.279 13.7 344 16.5 101430 46
2011-08-18 08:59 51°39.706 2°48.389 11.2 344 16.5 101430 45
2011-08-18 09:00 51°39.883 2°48.483 16.7 342 16.4 101430 45
2011-08-18 09:01 51°40.055 2°48.594 11.4 342 16.4 101430 45
2011-08-18 09:02 51°40.229 2°48.699 12.5 345 16.4 101440 45
2011-08-18 09:03 51°40.404 2°48.805 11.3 343 16.5 101450 45
2011-08-18 09:04 51°40.578 2°48.909 10.7 345 16.4 101440 45
2011-08-18 09:05 51°40.755 2°49.007 11.1 345 16.5 101460 46
2011-08-18 09:06 51°40.931 2°49.103 7.2 344 16.4 101460 45
2011-08-18 09:07 51°41.11 2°49.123 9.7 360 16.4 101460 45
2011-08-18 09:08 51°41.248 2°48.878 6 8 16.4 101460 45
2011-08-18 09:09 51°41.385 2°48.615 11.2 2 16.5 101450 45
2011-08-18 09:10 51°41.524 2°48.36 8.9 9 16.5 101460 44
2011-08-18 09:11 51°41.672 2°48.117 7 6 16.4 101460 43
2011-08-18 09:12 51°41.799 2°47.857 5.1 23 16.4 101460 44
2011-08-18 09:13 51°41.723 2°47.542 2.3 265 16.4 101480 45
2011-08-18 09:14 51°41.524 2°47.343 5.6 246 16.5 101480 44
2011-08-18 09:15 51°41.305 2°47.228 6.9 20 16.5 101470 44
2011-08-18 09:16 51°41.081 2°47.121 7.5 254 16.4 101460 44
2011-08-18 09:17 51°40.857 2°47.019 8.1 250 16.5 101460 44
2011-08-18 09:18 51°40.632 2°46.912 6.1 249 16.5 101470 44
2011-08-18 09:19 51°40.409 2°46.798 6.7 249 16.5 101470 43
2011-08-18 09:20 51°40.186 2°46.71 8.3 246 16.5 101470 44
2011-08-18 09:21 51°39.955 2°46.644 6.5 27 16.5 101470 44
2011-08-18 09:22 51°39.727 2°46.564 8.8 23 16.5 101470 43
2011-08-18 09:23 51°39.501 2°46.486 7.5 249 16.5 101460 44
2011-08-18 09:24 51°39.276 2°46.386 8.1 252 16.4 101460 43
2011-08-18 09:25 51°39.049 2°46.281 7.5 23 16.6 101470 43
2011-08-18 09:26 51°38.821 2°46.189 7.5 25 16.6 101460 43
2011-08-18 09:27 51°38.592 2°46.096 7.2 249 16.6 101460 43
2011-08-18 09:28 51°38.368 2°46.001 7.4 20 16.6 101460 43
2011-08-18 09:29 51°38.141 2°45.898 5.8 249 16.6 101470 44
2011-08-18 09:30 51°37.915 2°45.799 6.9 251 16.7 101470 44
2011-08-18 09:31 51°37.688 2°45.701 6.5 256 16.7 101460 44
2011-08-18 09:32 51°37.465 2°45.588 5.8 261 16.6 101470 43
2011-08-18 09:33 51°37.24 2°45.471 5.4 256 16.6 101460 43
2011-08-18 09:34 51°37.015 2°45.345 7.8 255 16.7 101460 44
2011-08-18 09:35 51°36.791 2°45.226 6.6 258 16.7 101460 44
2011-08-18 09:36 51°36.568 2°45.107 5.8 251 16.6 101480 43
2011-08-18 09:37 51°36.347 2°44.981 8.5 258 16.7 101480 44
2011-08-18 09:38 51°36.125 2°44.859 5.5 253 16.6 101470 43
2011-08-18 09:39 51°35.906 2°44.736 5.9 256 16.6 101470 43
2011-08-18 09:40 51°35.685 2°44.62 5.5 261 16.6 101460 42
2011-08-18 09:41 51°35.467 2°44.498 4.5 262 16.7 101460 44
2011-08-18 09:42 51°35.245 2°44.377 6.6 257 16.7 101460 43
2011-08-18 09:43 51°35.025 2°44.25 6.2 260 16.7 101460 43
2011-08-18 09:44 51°34.803 2°44.126 5.8 254 16.6 101470 43
2011-08-18 09:45 51°34.581 2°44.007 6.1 254 16.7 101470 43
2011-08-18 09:46 51°34.359 2°43.891 6.5 261 16.7 101460 42
2011-08-18 09:47 51°34.141 2°43.764 7.4 255 16.7 101450 43
2011-08-18 09:48 51°33.92 2°43.645 8 258 16.7 101440 43
2011-08-18 09:49 51°33.699 2°43.53 5.4 262 16.7 101450 43
2011-08-18 09:50 51°33.487 2°43.382 3.5 266 16.7 101440 42
2011-08-18 09:51 51°33.318 2°43.129 1.6 42 16.7 101440 42
2011-08-18 09:52 51°33.186 2°42.811 2.4 30 16.7 101440 43
2011-08-18 09:53 51°33.056 2°42.489 2.3 42 16.7 101430 42
2011-08-18 09:54 51°32.941 2°42.154 2.3 25 16.7 101430 42
2011-08-18 09:55 51°32.816 2°41.824 2 29 16.8 101440 41
2011-08-18 09:56 51°32.696 2°41.495 3.1 20 16.8 101430 42
2011-08-18 09:57 51°32.581 2°41.163 2.2 28 16.8 101430 43
2011-08-18 09:58 51°32.471 2°40.832 2 43 16.8 101430 41
2011-08-18 09:59 51°32.522 2°40.564 12 352 16.8 101420 42
2011-08-18 10:00 51°32.681 2°40.606 11.7 344 16.8 101410 44
2011-08-18 10:01 51°32.85 2°40.688 20.2 341 16.7 101400 44
2011-08-18 10:02 51°33.014 2°40.78 12.9 344 16.7 101410 43
2011-08-18 10:03 51°33.181 2°40.863 17.6 343 16.6 101400 43
2011-08-18 10:04 51°33.349 2°40.941 7.2 345 16.6 101390 42
2011-08-18 10:05 51°33.513 2°41.034 15.2 347 16.6 101390 42
2011-08-18 10:06 51°33.679 2°41.117 13 346 16.7 101400 43
2011-08-18 10:07 51°33.846 2°41.194 14.4 345 16.7 101390 43
2011-08-18 10:08 51°34.011 2°41.282 14.7 344 16.6 101390 43
2011-08-18 10:09 51°34.177 2°41.361 17.5 345 16.7 101390 44
2011-08-18 10:10 51°34.341 2°41.45 14.2 345 16.6 101390 43
2011-08-18 10:11 51°34.504 2°41.538 16.7 346 16.6 101390 43
2011-08-18 10:12 51°34.669 2°41.624 4.4 344 16.6 101390 43
2011-08-18 10:13 51°34.834 2°41.712 4.9 344 16.6 101390 44
2011-08-18 10:14 51°35.001 2°41.791 14 344 16.5 101390 43
2011-08-18 10:15 51°35.164 2°41.884 15.6 346 16.6 101390 42
2011-08-18 10:16 51°35.33 2°41.97 15.9 345 16.6 101390 44
2011-08-18 10:17 51°35.494 2°42.061 15.9 345 16.6 101400 43
2011-08-18 10:18 51°35.663 2°42.141 12.9 343 16.6 101400 44
2011-08-18 10:19 51°35.828 2°42.237 7.1 346 16.7 101390 44
2011-08-18 10:20 51°35.997 2°42.318 12.9 347 16.7 101390 44
2011-08-18 10:21 51°36.166 2°42.408 10.8 346 16.6 101390 43
2011-08-18 10:22 51°36.333 2°42.5 13.1 344 16.6 101390 43
2011-08-18 10:23 51°36.502 2°42.583 6.5 347 16.6 101370 42
2011-08-18 10:24 51°36.668 2°42.678 12.8 347 16.7 101390 43
2011-08-18 10:25 51°36.838 2°42.758 14.8 344 16.6 101370 42
2011-08-18 10:26 51°37.004 2°42.854 6.6 345 16.7 101380 43
2011-08-18 10:27 51°37.175 2°42.936 18 343 16.7 101380 43
2011-08-18 10:28 51°37.343 2°43.026 11.8 347 16.6 101390 42
2011-08-18 10:29 51°37.51 2°43.119 15.5 349 16.7 101380 43
2011-08-18 10:30 51°37.682 2°43.195 15 349 16.7 101390 43
2011-08-18 10:31 51°37.851 2°43.275 4.6 344 16.7 101390 43
2011-08-18 10:32 51°38.019 2°43.359 12.7 346 16.8 101380 44
2011-08-18 10:33 51°38.189 2°43.443 10.5 345 16.7 101390 43
2011-08-18 10:34 51°38.356 2°43.532 11.3 346 16.7 101380 43
2011-08-18 10:35 51°38.527 2°43.61 6.9 343 16.7 101380 42
2011-08-18 10:36 51°38.691 2°43.715 6.3 345 16.7 101390 43
2011-08-18 10:37 51°38.857 2°43.811 10.9 344 16.8 101380 43
2011-08-18 10:38 51°39.024 2°43.901 7.4 342 16.7 101380 42
2011-08-18 10:39 51°39.188 2°44.003 6.6 342 16.8 101380 42
2011-08-18 10:40 51°39.353 2°44.095 11.6 343 16.8 101380 43
2011-08-18 10:41 51°39.518 2°44.196 6.4 344 16.8 101370 43
2011-08-18 10:42 51°39.686 2°44.28 11.3 345 16.8 101370 43
2011-08-18 10:43 51°39.853 2°44.372 15 340 16.9 101380 43
2011-08-18 10:44 51°40.017 2°44.471 13.6 342 16.8 101390 43
2011-08-18 10:45 51°40.185 2°44.554 11.9 342 16.7 101380 43
2011-08-18 10:46 51°40.354 2°44.636 12.3 342 16.8 101390 43
2011-08-18 10:47 51°40.521 2°44.729 4.7 340 16.8 101390 43
2011-08-18 10:48 51°40.689 2°44.814 15.7 343 16.8 101380 43
2011-08-18 10:49 51°40.858 2°44.901 13.8 343 16.8 101390 43
2011-08-18 10:50 51°41.026 2°44.991 13.2 344 16.8 101390 43
2011-08-18 10:51 51°41.195 2°45.077 11.3 343 16.8 101390 44
2011-08-18 10:52 51°41.366 2°45.157 16.6 342 16.7 101380 43
2011-08-18 10:53 51°41.533 2°45.243 13.9 340 16.8 101380 44
2011-08-18 10:54 51°41.702 2°45.332 7.4 341 16.7 101380 42
2011-08-18 10:55 51°41.869 2°45.429 17.6 342 16.7 101370 43
2011-08-18 10:56 51°42.04 2°45.515 11.8 340 16.8 101370 43
2011-08-18 10:57 51°42.206 2°45.599 16.2 342 16.8 101380 44
2011-08-18 10:58 51°42.376 2°45.693 7.2 341 16.8 101380 43
2011-08-18 10:59 51°42.549 2°45.771 17.4 343 16.8 101380 43
2011-08-18 11:00 51°42.718 2°45.862 13 342 16.8 101380 44
2011-08-18 11:01 51°42.887 2°45.964 6.5 343 16.8 101390 43
2011-08-18 11:02 51°43.059 2°46.034 11.2 349 16.8 101380 42
2011-08-18 11:03 51°43.202 2°45.841 8.9 5 16.8 101390 43
2011-08-18 11:04 51°43.35 2°45.625 12.6 356 16.7 101400 44
2011-08-18 11:05 51°43.487 2°45.394 8.7 7 16.8 101380 45
2011-08-18 11:06 51°43.54 2°45.059 6 10 16.7 101410 45
2011-08-18 11:07 51°43.576 2°44.713 7.2 16 16.7 101410 45
2011-08-18 11:08 51°43.592 2°44.361 4.2 30 16.7 101410 44
2011-08-18 11:09 51°43.441 2°44.153 7.4 246 16.7 101410 44
2011-08-18 11:10 51°43.221 2°44.047 4 260 16.7 101400 44
2011-08-18 11:11 51°43.011 2°43.873 -999 261 16.7 101410 44
2011-08-18 11:12 51°42.789 2°43.728 -999 254 16.8 101410 44
2011-08-18 11:13 51°42.567 2°43.597 -999 260 16.8 101400 44
2011-08-18 11:14 51°42.348 2°43.456 -999 259 16.8 101400 44
2011-08-18 11:15 51°42.127 2°43.311 -999 254 16.8 101390 44
2011-08-18 11:16 51°41.902 2°43.181 -999 257 16.8 101380 44
2011-08-18 11:17 51°41.682 2°43.051 -999 260 16.8 101380 44
2011-08-18 11:18 51°41.463 2°42.912 -999 263 16.8 101390 42
2011-08-18 11:19 51°41.241 2°42.772 -999 269 16.8 101390 43
2011-08-18 11:20 51°41.017 2°42.638 -999 261 16.8 101380 44
2011-08-18 11:21 51°40.794 2°42.511 4.5 262 16.8 101380 44
2011-08-18 11:22 51°40.572 2°42.384 3.8 258 16.8 101370 44
2011-08-18 11:23 51°40.352 2°42.256 0.1 264 16.8 101370 44
2011-08-18 11:24 51°40.129 2°42.135 -999 265 16.7 101360 44
2011-08-18 11:25 51°39.905 2°42.023 -999 255 16.7 101360 44
2011-08-18 11:26 51°39.678 2°41.913 -999 258 16.7 101350 43
2011-08-18 11:27 51°39.454 2°41.808 4.3 262 16.7 101350 45
2011-08-18 11:28 51°39.23 2°41.699 3.7 268 16.7 101340 45
2011-08-18 11:29 51°39.007 2°41.587 4.3 258 16.6 101350 45
2011-08-18 11:30 51°38.782 2°41.465 3.2 264 16.6 101350 45
2011-08-18 11:31 51°38.556 2°41.36 5.9 249 16.6 101350 46
2011-08-18 11:32 51°38.33 2°41.253 7.5 259 16.6 101350 45
2011-08-18 11:33 51°38.106 2°41.144 6.2 254 16.6 101350 45
2011-08-18 11:34 51°37.885 2°41.023 5.4 255 16.6 101360 44
2011-08-18 11:35 51°37.664 2°40.903 4.6 255 16.6 101360 45
2011-08-18 11:36 51°37.444 2°40.794 5.2 258 16.6 101370 46
2011-08-18 11:37 51°37.221 2°40.685 4 23 16.6 101370 46
2011-08-18 11:38 51°37.002 2°40.566 3.5 251 16.6 101360 45
2011-08-18 11:39 51°36.782 2°40.45 6.7 251 16.6 101360 46
2011-08-18 11:40 51°36.56 2°40.34 5.9 259 16.6 101340 46
2011-08-18 11:41 51°36.341 2°40.228 5.3 256 16.6 101330 45
2011-08-18 11:42 51°36.121 2°40.123 4.5 259 16.5 101320 44
2011-08-18 11:43 51°35.899 2°40.019 4.5 262 16.6 101320 45
2011-08-18 11:44 51°35.678 2°39.921 3.6 264 16.6 101310 45
2011-08-18 11:45 51°35.461 2°39.808 4.3 254 16.6 101310 45
2011-08-18 11:46 51°35.244 2°39.703 5.3 252 16.6 101310 46
2011-08-18 11:47 51°35.024 2°39.606 6.7 259 16.6 101300 45
2011-08-18 11:48 51°34.804 2°39.506 6 257 16.6 101290 45
2011-08-18 11:49 51°34.587 2°39.397 3 267 16.5 101290 45
2011-08-18 11:50 51°34.37 2°39.283 5.2 256 16.5 101290 44
2011-08-18 11:51 51°34.156 2°39.167 6 258 16.5 101290 45
2011-08-18 11:52 51°33.938 2°39.055 4.5 265 16.5 101290 46
2011-08-18 11:53 51°33.719 2°38.945 6.1 252 16.5 101300 46
2011-08-18 11:54 51°33.499 2°38.832 4.5 261 16.5 101300 46
2011-08-18 11:55 51°33.277 2°38.712 8 257 16.4 101300 46
2011-08-18 11:56 51°33.056 2°38.598 5.8 261 16.3 101300 47
2011-08-18 11:57 51°32.838 2°38.482 3.3 264 16.3 101300 46
2011-08-18 11:58 51°32.617 2°38.373 3.7 263 16.3 101300 45
2011-08-18 11:59 51°32.402 2°38.259 5.2 262 16.3 101300 47
2011-08-18 12:00 51°32.184 2°38.133 5.2 257 16.3 101300 47
2011-08-18 12:01 51°31.964 2°38.016 3.5 267 16.3 101300 47
2011-08-18 12:02 51°31.747 2°37.9 4.7 270 16.2 101290 48
2011-08-18 12:03 51°31.53 2°37.774 0.1 262 16.2 101290 47
2011-08-18 12:04 51°31.312 2°37.652 3.7 267 16.2 101290 47
2011-08-18 12:05 51°31.092 2°37.525 6.6 262 16.2 101280 47
2011-08-18 12:06 51°30.872 2°37.412 3.8 263 16.2 101290 46
2011-08-18 12:07 51°30.653 2°37.298 5.9 263 16.2 101280 47
2011-08-18 12:08 51°30.437 2°37.184 3.6 266 16.2 101280 48
2011-08-18 12:09 51°30.216 2°37.068 5.6 262 16.2 101260 47
2011-08-18 12:10 51°29.995 2°36.961 3.8 264 16.2 101260 48
2011-08-18 12:11 51°29.775 2°36.843 0.2 262 16.2 101260 48
2011-08-18 12:12 51°29.555 2°36.738 4.8 264 16.2 101260 48
2011-08-18 12:13 51°29.334 2°36.632 4.4 264 16.2 101260 47
2011-08-18 12:14 51°29.117 2°36.625 10.2 24 16.2 101250 47
2011-08-18 12:15 51°28.931 2°36.793 11.1 25 16.2 101220 48
2011-08-18 12:16 51°28.762 2°37.002 14 24 16.2 101210 48
2011-08-18 12:17 51°28.6 2°37.224 12.4 25 16.2 101210 47
2011-08-18 12:18 51°28.437 2°37.445 10.4 21 16.2 101210 47
2011-08-18 12:19 51°28.273 2°37.664 12.7 26 16.2 101230 47
2011-08-18 12:20 51°28.11 2°37.884 13.6 28 16.2 101210 47
2011-08-18 12:21 51°27.945 2°38.1 4.4 27 16.2 101200 48
2011-08-18 12:22 51°27.782 2°38.32 13.4 22 16.2 101210 46
2011-08-18 12:23 51°27.618 2°38.541 10.9 24 16.2 101200 48
2011-08-18 12:24 51°27.451 2°38.756 10.8 27 16.2 101210 48
2011-08-18 12:25 51°27.285 2°38.974 2.6 24 16.2 101190 48
2011-08-18 12:26 51°27.12 2°39.192 13.6 23 16.2 101180 48
2011-08-18 12:27 51°26.953 2°39.407 11.7 25 16.3 101190 48
2011-08-18 12:28 51°26.791 2°39.627 13.3 24 16.3 101190 47
2011-08-18 12:29 51°26.606 2°39.801 8.6 244 16.4 101180 48
2011-08-18 12:30 51°26.402 2°39.936 6.1 244 16.4 101180 46
2011-08-18 12:31 51°26.204 2°40.082 13.9 247 16.5 101200 48
2011-08-18 12:32 51°26.005 2°40.215 5.4 21 16.5 101210 48
2011-08-18 12:33 51°25.835 2°40.405 13.9 22 16.5 101180 48
2011-08-18 12:34 51°25.676 2°40.611 13.5 22 16.5 101180 47
2011-08-18 12:35 51°25.523 2°40.832 6.2 26 16.5 101170 47
2011-08-18 12:36 51°25.37 2°41.056 12.9 22 16.6 101160 48
2011-08-18 12:37 51°25.218 2°41.283 12 22 16.6 101150 47
2011-08-18 12:38 51°25.065 2°41.51 10.4 24 16.6 101160 46
2011-08-18 12:39 51°24.912 2°41.738 12.7 22 16.6 101150 47
2011-08-18 12:40 51°24.771 2°41.983 6.8 24 16.6 101150 47
2011-08-18 12:41 51°24.63 2°42.23 13.8 25 16.6 101150 47
2011-08-18 12:42 51°24.485 2°42.472 15.8 26 16.6 101140 47
2011-08-18 12:43 51°24.342 2°42.716 17.2 24 16.6 101140 47
2011-08-18 12:44 51°24.204 2°42.968 12.6 27 16.7 101150 47
2011-08-18 12:45 51°24.054 2°43.203 14.6 24 16.7 101150 47
2011-08-18 12:46 51°23.901 2°43.433 7 24 16.8 101140 46
2011-08-18 12:47 51°23.741 2°43.656 9.9 24 16.8 101160 47
2011-08-18 12:48 51°23.587 2°43.888 14.4 22 16.8 101150 47
2011-08-18 12:49 51°23.424 2°44.095 5.7 26 16.8 101160 47
2011-08-18 12:50 51°23.271 2°44.317 10.8 22 16.9 101180 47
2011-08-18 12:51 51°23.116 2°44.541 13.4 22 16.9 101170 47
2011-08-18 12:52 51°22.953 2°44.759 6.2 26 17 101160 47
2011-08-18 12:53 51°22.796 2°44.985 11.5 22 16.9 101160 47
2011-08-18 12:54 51°22.633 2°45.204 11.3 28 16.9 101150 45
2011-08-18 12:55 51°22.477 2°45.432 11.5 21 16.9 101160 46
2011-08-18 12:56 51°22.319 2°45.661 12.9 25 16.9 101160 47
2011-08-18 12:57 51°22.158 2°45.888 13 29 16.9 101160 47
2011-08-18 12:58 51°21.992 2°46.111 12 25 16.9 101140 47
2011-08-18 12:59 51°21.827 2°46.331 13 29 16.8 101160 47
2011-08-18 13:00 51°21.66 2°46.546 12.6 25 16.9 101160 47
2011-08-18 13:01 51°21.493 2°46.764 12.3 27 16.9 101150 47
2011-08-18 13:02 51°21.329 2°46.986 5.8 27 16.9 101160 46
2011-08-18 13:03 51°21.162 2°47.2 10 23 16.8 101150 47
2011-08-18 13:04 51°20.992 2°47.411 6 27 16.8 101160 47
2011-08-18 13:05 51°20.825 2°47.626 13.1 26 16.8 101160 48
2011-08-18 13:06 51°20.658 2°47.843 10 22 16.8 101150 47
2011-08-18 13:07 51°20.486 2°48.047 15.4 24 16.8 101130 48
2011-08-18 13:08 51°20.325 2°48.27 11.4 21 16.8 101140 48
2011-08-18 13:09 51°20.154 2°48.477 12.9 25 16.8 101140 47
2011-08-18 13:10 51°19.988 2°48.689 13.9 24 16.8 101120 46
2011-08-18 13:11 51°19.824 2°48.899 10 27 16.8 101110 47
2011-08-18 13:12 51°19.658 2°49.109 9.9 25 16.8 101100 47
2011-08-18 13:13 51°19.492 2°49.319 6.2 25 16.8 101100 47
2011-08-18 13:14 51°19.332 2°49.544 6.3 26 16.9 101110 48
2011-08-18 13:15 51°19.175 2°49.771 6 25 17 101120 47
2011-08-18 13:16 51°19.02 2°50.006 4.2 23 16.9 101110 47
2011-08-18 13:17 51°18.864 2°50.242 11.5 23 16.9 101120 47
2011-08-18 13:18 51°18.709 2°50.477 10.4 26 16.9 101130 46
2011-08-18 13:19 51°18.551 2°50.71 13 24 16.9 101140 48
2011-08-18 13:20 51°18.383 2°50.92 4.4 26 16.9 101140 48
2011-08-18 13:21 51°18.217 2°51.138 9.8 26 16.8 101110 47
2011-08-18 13:22 51°18.052 2°51.357 11.9 25 16.8 101090 48
2011-08-18 13:23 51°17.885 2°51.57 11.4 28 16.8 101080 47
2011-08-18 13:24 51°17.718 2°51.783 13.7 246 16.7 101070 48
2011-08-18 13:25 51°17.545 2°51.978 6.3 246 16.7 101080 47
2011-08-18 13:26 51°17.363 2°52.155 11.3 248 16.7 101090 47
2011-08-18 13:27 51°17.182 2°52.338 10 23 16.7 101090 48
2011-08-18 13:28 51°16.998 2°52.502 8.7 252 16.7 101100 47
2011-08-18 13:29 51°16.8 2°52.626 8.8 248 16.7 101110 48
2011-08-18 13:30 51°16.61 2°52.773 9.8 23 16.7 101120 48
2011-08-18 13:31 51°16.42 2°52.923 9.8 25 16.7 101130 49
2011-08-18 13:32 51°16.233 2°53.075 8.2 21 16.8 101150 49
2011-08-18 13:33 51°16.054 2°53.247 8.5 25 16.8 101160 49
2011-08-18 13:34 51°15.871 2°53.41 8.6 25 16.8 101160 47
2011-08-18 13:35 51°15.7 2°53.606 5.1 23 16.8 101160 49
2011-08-18 13:36 51°15.545 2°53.837 8.7 25 16.8 101170 49
2011-08-18 13:37 51°15.376 2°54.038 8.4 21 16.8 101170 47
2011-08-18 13:38 51°15.204 2°54.235 7.2 25 16.9 101170 48
2011-08-18 13:39 51°15.04 2°54.442 9.1 24 16.9 101160 48
2011-08-18 13:40 51°14.876 2°54.642 10.7 21 17 101150 48
2011-08-18 13:41 51°14.715 2°54.848 11.7 22 17 101120 48
2011-08-18 13:42 51°14.546 2°55.052 9.1 248 17 101120 47
2011-08-18 13:43 51°14.363 2°55.223 6.9 26 17.1 101110 48
2011-08-18 13:44 51°14.222 2°55.339 7.1 26 17.1 101130 49
2011-08-18 13:45 51°14.115 2°55.425 7.4 249 17.2 101130 48
2011-08-18 13:47 51°14.021 2°55.493 7.6 257 17.3 101130 48
2011-08-18 13:48 51°13.934 2°55.559 6.6 22 17.4 101130 49
2011-08-18 13:49 51°13.851 2°55.623 6.6 21 17.4 101120 48
2011-08-18 13:49 51°13.779 2°55.68 5.6 248 17.5 101120 49
2011-08-18 13:50 51°13.72 2°55.747 6.5 246 17.5 101100 47
2011-08-18 13:51 51°13.68 2°55.836 7.1 20 17.6 101100 49
2011-08-18 13:52 51°13.651 2°55.932 2.6 315 17.8 101090 49
2011-08-18 13:53 51°13.64 2°56.004 6.1 28 17.9 101090 49
2011-08-18 13:54 51°13.637 2°56.014 5.4 22 17.9 101100 49